Time;durP1;ratioP1;P1;durP2;ratioP2;P2;SDS_P1;SDS_P2;PMS_P1;PMS_P2;Temp;Humidity;BMP_temperature;BMP_pressure;BME280_temperature;BME280_humidity;BME280_pressure;Samples;Min_cycle;Max_cycle;Signal;HPM_P1;HPM_P2
2021/10/01 00:02:23;;;;;;;8.40;2.45;;;;;;;12.66;74.83;101791.50;4943500;28;20058;-69
2021/10/01 00:04:51;;;;;;;8.43;2.65;;;;;;;12.62;74.95;101788.00;4948129;28;20053;-69
2021/10/01 00:07:20;;;;;;;8.60;2.58;;;;;;;12.60;75.22;101781.81;4945570;28;20139;-69
2021/10/01 00:09:48;;;;;;;9.30;2.72;;;;;;;12.60;74.82;101781.81;4950111;28;20062;-71
2021/10/01 00:12:17;;;;;;;7.93;2.42;;;;;;;12.58;75.17;101781.00;4940963;28;20054;-69
2021/10/01 00:14:48;;;;;;;10.80;2.53;;;;;;;12.58;75.07;101775.63;4943891;28;20486;-69
2021/10/01 00:17:16;;;;;;;7.88;3.10;;;;;;;12.63;74.67;101781.75;4946454;28;20685;-69
2021/10/01 00:19:44;;;;;;;7.22;2.42;;;;;;;12.58;75.14;101785.44;4947786;28;20058;-69
2021/10/01 00:22:12;;;;;;;6.13;2.53;;;;;;;12.58;75.70;101777.41;4946615;28;20061;-70
2021/10/01 00:24:41;;;;;;;10.52;2.80;;;;;;;12.49;77.02;101779.41;4950326;28;20047;-69
2021/10/01 00:27:12;;;;;;;7.25;3.22;;;;;;;12.47;77.20;101764.31;4944920;28;20141;-69
2021/10/01 00:29:40;;;;;;;13.38;2.95;;;;;;;12.42;77.46;101761.75;4944756;28;20086;-69
2021/10/01 00:32:08;;;;;;;6.80;2.92;;;;;;;12.42;77.88;101766.22;4945807;28;20545;-69
2021/10/01 00:34:36;;;;;;;7.88;2.75;;;;;;;12.39;77.78;101752.91;4944504;28;22167;-69
2021/10/01 00:37:04;;;;;;;5.90;2.53;;;;;;;12.35;78.19;101769.97;4947688;28;20070;-70
2021/10/01 00:39:32;;;;;;;7.63;2.45;;;;;;;12.30;78.78;101773.63;4944628;28;20895;-70
2021/10/01 00:42:01;;;;;;;11.00;3.13;;;;;;;12.32;79.21;101761.09;4950538;28;20055;-69
2021/10/01 00:44:30;;;;;;;8.48;2.70;;;;;;;12.35;79.12;101761.94;4944206;28;20158;-69
2021/10/01 00:46:57;;;;;;;6.10;2.28;;;;;;;12.33;79.35;101761.97;4945129;28;20129;-69
2021/10/01 00:49:25;;;;;;;6.50;2.70;;;;;;;12.30;79.64;101760.25;4947131;28;20058;-69
2021/10/01 00:51:54;;;;;;;8.05;2.55;;;;;;;12.29;80.02;101760.28;4943664;28;20159;-69
2021/10/01 00:54:21;;;;;;;8.52;2.60;;;;;;;12.28;80.06;101755.88;4942947;28;20059;-69
2021/10/01 00:56:49;;;;;;;5.55;2.60;;;;;;;12.28;80.37;101750.50;4947347;28;20073;-70
2021/10/01 00:59:18;;;;;;;11.45;2.42;;;;;;;12.24;80.35;101751.50;4945165;28;20070;-69
2021/10/01 01:01:46;;;;;;;3.95;2.60;;;;;;;12.23;80.04;101745.25;4946454;28;20342;-69
2021/10/01 01:04:14;;;;;;;4.65;2.33;;;;;;;12.21;80.48;101731.06;4944999;28;20050;-69
2021/10/01 01:06:48;;;;;;;8.80;2.63;;;;;;;12.23;79.87;101737.25;4946502;28;20074;-69
2021/10/01 01:09:37;;;;;;;4.65;2.58;;;;;;;12.28;79.75;101732.66;4947106;28;20059;-69
2021/10/01 01:12:22;;;;;;;6.20;2.33;;;;;;;12.30;79.48;101728.13;4948269;28;20109;-69
2021/10/01 01:14:56;;;;;;;13.43;3.47;;;;;;;12.28;79.08;101724.63;4946904;28;20082;-69
2021/10/01 01:17:28;;;;;;;5.55;2.17;;;;;;;12.36;79.15;101732.47;4949645;28;20109;-70
2021/10/01 01:20:07;;;;;;;6.15;2.65;;;;;;;12.33;78.85;101729.88;4947302;28;20934;-70
2021/10/01 01:23:09;;;;;;;7.10;2.60;;;;;;;12.33;78.54;101728.06;4945217;28;20126;-71
2021/10/01 01:25:57;;;;;;;7.97;2.47;;;;;;;12.31;78.57;101726.38;4947030;28;20093;-70
2021/10/01 01:28:40;;;;;;;7.75;2.30;;;;;;;12.29;78.93;101729.06;4942966;28;20050;-71
2021/10/01 01:31:17;;;;;;;6.57;2.30;;;;;;;12.31;78.56;101719.19;4947490;28;20090;-66
2021/10/01 01:33:47;;;;;;;7.20;2.47;;;;;;;12.33;78.41;101714.69;4943870;28;20113;-67
2021/10/01 01:36:16;;;;;;;4.20;2.05;;;;;;;12.33;78.09;101713.81;4947757;28;20318;-67
2021/10/01 01:38:48;;;;;;;4.53;2.10;;;;;;;12.35;78.18;101705.75;4943999;28;20138;-66
2021/10/01 01:41:18;;;;;;;10.25;2.80;;;;;;;12.29;78.76;101707.66;4946975;28;20081;-66
2021/10/01 01:43:46;;;;;;;7.65;2.45;;;;;;;12.32;78.06;101696.84;4943796;28;20507;-65
2021/10/01 01:46:14;;;;;;;7.72;2.78;;;;;;;12.31;78.56;101694.25;4946058;28;20073;-65
2021/10/01 01:48:44;;;;;;;5.65;2.15;;;;;;;12.29;78.27;101688.03;4952812;28;20527;-65
2021/10/01 01:51:14;;;;;;;5.82;2.10;;;;;;;12.30;78.17;101687.13;4947648;28;20055;-65
2021/10/01 01:53:43;;;;;;;5.68;2.20;;;;;;;12.30;78.52;101687.13;4945400;28;20157;-65
2021/10/01 01:56:12;;;;;;;8.38;2.55;;;;;;;12.32;78.06;101678.13;4946069;28;20410;-65
2021/10/01 01:58:43;;;;;;;7.75;2.08;;;;;;;12.36;77.88;101678.06;4946455;28;20154;-65
2021/10/01 02:01:13;;;;;;;8.73;2.67;;;;;;;12.32;77.39;101685.28;4948149;28;20050;-65
2021/10/01 02:03:42;;;;;;;6.07;2.38;;;;;;;12.27;77.99;101679.16;4948696;28;20066;-65
2021/10/01 02:06:12;;;;;;;8.82;2.80;;;;;;;12.24;78.06;101673.91;4953773;28;20062;-65
2021/10/01 02:08:42;;;;;;;6.95;2.55;;;;;;;12.16;78.28;101671.44;4947478;28;20046;-65
2021/10/01 02:11:11;;;;;;;10.60;2.35;;;;;;;12.08;78.97;101660.03;4946900;28;20042;-65
2021/10/01 02:13:41;;;;;;;7.10;2.30;;;;;;;12.05;79.12;101658.31;4946964;28;20368;-65
2021/10/01 02:16:11;;;;;;;5.82;2.42;;;;;;;12.09;78.55;101660.00;4948099;28;20468;-65
2021/10/01 02:18:40;;;;;;;6.85;2.42;;;;;;;12.13;78.65;101660.81;4948880;28;20356;-65
2021/10/01 02:21:09;;;;;;;5.60;2.22;;;;;;;12.08;78.82;101658.22;4942353;28;20605;-65
2021/10/01 02:23:37;;;;;;;4.95;2.60;;;;;;;12.09;79.03;101645.75;4947785;28;20509;-65
2021/10/01 02:28:58;;;;;;;6.50;2.50;;;;;;;12.05;79.52;101644.06;4944498;28;20158;-65
2021/10/01 02:31:32;;;;;;;4.32;2.60;;;;;;;12.11;79.06;101636.75;4948188;28;20058;-65
2021/10/01 02:34:03;;;;;;;7.43;2.20;;;;;;;12.07;79.26;101621.72;4946263;28;20618;-65
2021/10/01 02:36:31;;;;;;;7.13;2.35;;;;;;;12.06;79.17;101627.09;4951811;28;20090;-65
2021/10/01 02:38:59;;;;;;;8.05;2.42;;;;;;;12.09;78.91;101619.00;4948668;28;20233;-64
2021/10/01 02:41:28;;;;;;;6.13;2.20;;;;;;;12.03;79.38;101608.44;4942990;28;20117;-65
2021/10/01 02:44:20;;;;;;;8.75;2.50;;;;;;;12.00;79.35;101608.53;4946186;28;20057;-67
2021/10/01 02:46:48;;;;;;;10.23;2.72;;;;;;;12.03;79.26;101605.78;4948229;28;20110;-65
2021/10/01 02:49:16;;;;;;;6.05;2.72;;;;;;;12.00;79.38;101589.81;4946244;28;20247;-67
2021/10/01 02:51:49;;;;;;;7.00;2.42;;;;;;;12.01;79.45;101587.09;4949077;28;20261;-65
2021/10/01 02:54:24;;;;;;;5.72;2.47;;;;;;;12.03;79.18;101581.72;4944516;28;20134;-65
2021/10/01 02:57:00;;;;;;;6.10;2.70;;;;;;;11.98;79.41;101576.47;4947102;28;20055;-64
2021/10/01 02:59:30;;;;;;;6.15;2.50;;;;;;;11.98;79.36;101570.25;4949063;28;20487;-69
2021/10/01 03:02:00;;;;;;;10.02;2.75;;;;;;;11.96;79.48;101565.81;4943686;28;20542;-70
2021/10/01 03:04:28;;;;;;;10.07;2.67;;;;;;;11.89;79.72;101550.81;4947964;28;20106;-70
2021/10/01 03:06:58;;;;;;;4.43;2.03;;;;;;;11.94;79.47;101548.94;4947592;28;20486;-71
2021/10/01 03:09:29;;;;;;;6.70;2.28;;;;;;;11.86;79.84;101553.56;4949138;28;20154;-66
2021/10/01 03:12:01;;;;;;;5.95;2.13;;;;;;;11.84;79.71;101555.41;4942921;28;20166;-64
2021/10/01 03:14:29;;;;;;;4.35;2.20;;;;;;;11.80;79.98;101550.16;4949124;28;20161;-66
2021/10/01 03:16:59;;;;;;;7.22;2.25;;;;;;;11.81;79.98;101559.97;4946186;28;20617;-67
2021/10/01 03:19:27;;;;;;;9.18;2.78;;;;;;;11.80;79.99;101560.88;4948572;28;20134;-66
2021/10/01 03:21:57;;;;;;;5.72;2.22;;;;;;;11.76;79.92;101554.72;4946097;28;20173;-64
2021/10/01 03:24:25;;;;;;;7.05;2.20;;;;;;;11.75;79.77;101553.84;4950585;28;20069;-64
2021/10/01 03:26:54;;;;;;;6.32;2.15;;;;;;;11.69;79.78;101558.47;4944740;28;20054;-64
2021/10/01 03:29:24;;;;;;;6.43;2.35;;;;;;;11.69;79.79;101556.66;4948111;28;20674;-67
2021/10/01 03:31:53;;;;;;;5.85;2.25;;;;;;;11.68;79.51;101548.69;4947558;28;20598;-67
2021/10/01 03:34:21;;;;;;;4.45;2.10;;;;;;;11.65;79.95;101538.09;4949170;28;20050;-64
2021/10/01 03:36:49;;;;;;;7.00;2.15;;;;;;;11.61;79.99;101539.06;4951689;28;20176;-64
2021/10/01 03:39:21;;;;;;;6.85;3.10;;;;;;;11.67;79.85;101538.94;4947750;28;20047;-65
2021/10/01 03:41:50;;;;;;;4.97;1.90;;;;;;;11.69;79.30;101529.94;4947482;28;20046;-66
2021/10/01 03:44:18;;;;;;;4.18;2.05;;;;;;;11.72;79.23;101521.84;4947693;28;20078;-65
2021/10/01 03:46:49;;;;;;;8.23;2.47;;;;;;;11.73;79.29;101528.97;4947045;28;20142;-65
2021/10/01 03:49:16;;;;;;;8.85;2.30;;;;;;;11.72;79.40;101515.63;4948041;28;20121;-65
2021/10/01 03:51:44;;;;;;;8.43;2.40;;;;;;;11.83;78.86;101509.97;4945658;28;20055;-65
2021/10/01 03:54:12;;;;;;;5.38;2.42;;;;;;;11.83;79.10;101507.31;4943556;28;20583;-65
2021/10/01 03:56:40;;;;;;;7.75;2.50;;;;;;;11.89;78.75;101496.47;4947258;28;20309;-65
2021/10/01 03:59:07;;;;;;;7.78;2.20;;;;;;;11.88;78.72;101487.53;4945427;28;20507;-65
2021/10/01 04:01:35;;;;;;;6.80;2.85;;;;;;;11.88;78.97;101503.59;4948665;28;20065;-66
2021/10/01 04:04:05;;;;;;;5.25;2.05;;;;;;;11.90;79.04;101504.44;4946957;28;20105;-65
2021/10/01 04:06:35;;;;;;;6.78;2.63;;;;;;;11.89;78.93;101502.69;4950095;28;20050;-66
2021/10/01 04:09:03;;;;;;;6.93;2.33;;;;;;;11.90;79.08;101488.41;4947025;28;20055;-66
2021/10/01 04:11:31;;;;;;;5.32;2.20;;;;;;;11.89;79.10;101489.31;4946324;28;20149;-66
2021/10/01 04:13:59;;;;;;;4.22;2.00;;;;;;;11.88;79.50;101490.22;4945906;28;20125;-66
2021/10/01 04:16:26;;;;;;;6.20;2.10;;;;;;;11.90;79.23;101490.19;4945747;28;20047;-66
2021/10/01 04:18:54;;;;;;;8.60;2.33;;;;;;;11.90;79.08;101495.53;4948650;28;20762;-65
2021/10/01 04:21:24;;;;;;;6.47;2.05;;;;;;;11.90;79.02;101498.19;4946427;28;20072;-66
2021/10/01 04:23:53;;;;;;;7.15;3.10;;;;;;;11.94;78.80;101483.88;4947397;28;20062;-66
2021/10/01 04:26:20;;;;;;;6.10;2.13;;;;;;;11.87;79.39;101504.53;4946565;28;20277;-66
2021/10/01 04:28:51;;;;;;;6.45;2.40;;;;;;;11.84;79.45;101509.09;4944816;28;20150;-66
2021/10/01 04:31:19;;;;;;;4.90;2.10;;;;;;;11.84;79.61;101506.41;4946441;28;20138;-66
2021/10/01 04:33:47;;;;;;;6.38;2.50;;;;;;;11.86;79.16;101502.75;4946931;28;20199;-65
2021/10/01 04:36:16;;;;;;;6.78;2.25;;;;;;;11.82;79.58;101501.09;4946753;28;20090;-65
2021/10/01 04:38:45;;;;;;;7.13;2.35;;;;;;;11.81;79.48;101488.63;4946644;28;20086;-65
2021/10/01 04:41:13;;;;;;;6.28;2.20;;;;;;;11.83;79.57;101493.94;4945743;28;20567;-66
2021/10/01 04:43:41;;;;;;;5.97;2.45;;;;;;;11.77;79.77;101495.00;4948887;28;20093;-65
2021/10/01 04:46:10;;;;;;;11.18;3.13;;;;;;;11.76;79.82;101496.81;4945050;28;20086;-65
2021/10/01 04:48:37;;;;;;;7.50;2.22;;;;;;;11.82;79.39;101495.75;4943586;28;20952;-65
2021/10/01 04:51:05;;;;;;;6.07;2.30;;;;;;;11.76;79.63;101491.44;4944463;28;20050;-66
2021/10/01 04:53:33;;;;;;;6.25;2.63;;;;;;;11.71;79.87;101490.69;4942574;28;20137;-64
2021/10/01 04:56:03;;;;;;;7.03;3.47;;;;;;;11.66;80.47;101491.72;4947766;28;20210;-71
2021/10/01 04:58:31;;;;;;;5.72;2.10;;;;;;;11.69;80.36;101486.28;4945611;28;20057;-69
2021/10/01 05:01:01;;;;;;;8.07;2.65;;;;;;;11.73;80.11;101490.63;4947815;28;20085;-69
2021/10/01 05:03:30;;;;;;;4.35;2.13;;;;;;;11.64;80.70;101491.75;4943509;28;20547;-69
2021/10/01 05:06:01;;;;;;;6.15;2.47;;;;;;;11.62;80.65;101490.06;4946385;28;20050;-70
2021/10/01 05:08:29;;;;;;;8.45;3.03;;;;;;;11.74;79.99;101489.72;4948188;28;20060;-69
2021/10/01 05:10:57;;;;;;;8.50;2.50;;;;;;;11.71;80.43;101487.13;4945743;28;20047;-69
2021/10/01 05:13:26;;;;;;;10.20;3.05;;;;;;;11.68;80.43;101488.09;4943744;28;20057;-68
2021/10/01 05:15:54;;;;;;;14.60;3.20;;;;;;;11.66;80.74;101497.06;4946070;28;20082;-69
2021/10/01 05:18:23;;;;;;;10.57;3.13;;;;;;;11.58;81.51;101487.44;4948174;28;20173;-69
2021/10/01 05:20:50;;;;;;;8.43;2.70;;;;;;;11.66;80.93;101483.69;4948559;28;20043;-69
2021/10/01 05:23:19;;;;;;;9.77;2.50;;;;;;;11.64;81.16;101494.44;4947606;28;20138;-68
2021/10/01 05:25:47;;;;;;;10.35;3.03;;;;;;;11.69;80.78;101481.81;4949003;28;20093;-70
2021/10/01 05:28:17;;;;;;;4.57;2.17;;;;;;;11.66;81.16;101478.34;4949920;28;20055;-69
2021/10/01 05:30:47;;;;;;;8.63;2.80;;;;;;;11.69;80.98;101465.78;4949926;28;20089;-69
2021/10/01 05:33:15;;;;;;;11.07;2.90;;;;;;;11.67;81.37;101472.09;4951105;28;20050;-69
2021/10/01 05:35:44;;;;;;;11.43;3.50;;;;;;;11.73;80.87;101474.59;4949787;28;20495;-69
2021/10/01 05:38:13;;;;;;;10.82;2.50;;;;;;;11.74;80.81;101463.00;4950209;28;20072;-69
2021/10/01 05:40:41;;;;;;;8.93;2.45;;;;;;;11.79;80.66;101469.09;4947462;28;20055;-70
2021/10/01 05:43:16;;;;;;;7.57;2.30;;;;;;;11.79;80.46;101469.09;4946533;28;20512;-69
2021/10/01 05:45:44;;;;;;;11.10;2.38;;;;;;;11.73;81.04;101467.47;4949001;28;20149;-70
2021/10/01 05:48:13;;;;;;;3.67;2.03;;;;;;;11.76;80.86;101466.50;4947331;28;20055;-69
2021/10/01 05:50:43;;;;;;;8.02;2.33;;;;;;;11.82;80.71;101465.47;4948888;28;20055;-69
2021/10/01 05:53:24;;;;;;;5.70;2.45;;;;;;;11.77;81.35;101461.09;4942792;28;20050;-69
2021/10/01 05:55:52;;;;;;;3.35;1.80;;;;;;;11.71;81.49;101460.38;4949261;28;20141;-69
2021/10/01 05:58:21;;;;;;;5.07;2.15;;;;;;;11.69;81.77;101456.88;4946984;28;20406;-69
2021/10/01 06:00:49;;;;;;;4.65;2.03;;;;;;;11.71;81.42;101458.63;4950696;28;20058;-70
2021/10/01 06:03:18;;;;;;;7.68;2.58;;;;;;;11.77;81.25;101462.91;4948876;28;20061;-69
2021/10/01 06:05:46;;;;;;;12.00;2.60;;;;;;;11.80;81.29;101454.81;4950291;28;20327;-70
2021/10/01 06:08:14;;;;;;;9.15;2.80;;;;;;;11.82;80.92;101452.97;4944512;28;20554;-69
2021/10/01 06:10:42;;;;;;;9.57;2.38;;;;;;;11.81;81.24;101455.69;4948243;28;20629;-70
2021/10/01 06:13:09;;;;;;;7.43;3.58;;;;;;;11.85;81.15;101449.31;4948333;28;20055;-70
2021/10/01 06:15:40;;;;;;;7.65;2.55;;;;;;;11.83;81.35;101448.50;4947521;28;20055;-70
2021/10/01 06:18:08;;;;;;;7.50;2.70;;;;;;;11.84;81.16;101455.59;4948366;28;20054;-69
2021/10/01 06:20:37;;;;;;;7.97;2.53;;;;;;;11.84;81.30;101461.81;4943945;28;20578;-70
2021/10/01 06:23:08;;;;;;;4.82;2.10;;;;;;;11.87;81.32;101452.84;4945063;28;20054;-70
2021/10/01 06:25:35;;;;;;;7.75;2.75;;;;;;;11.91;80.74;101454.53;4946468;28;20113;-70
2021/10/01 06:28:04;;;;;;;6.70;2.45;;;;;;;11.91;80.72;101447.38;4949885;28;20245;-70
2021/10/01 06:30:31;;;;;;;8.43;2.42;;;;;;;11.89;80.77;101437.63;4949327;28;20591;-70
2021/10/01 06:32:59;;;;;;;13.02;2.88;;;;;;;11.90;80.55;101434.91;4944622;28;20629;-70
2021/10/01 06:35:27;;;;;;;5.85;2.38;;;;;;;11.91;80.16;101439.34;4946155;28;20052;-70
2021/10/01 06:37:56;;;;;;;7.35;3.67;;;;;;;11.98;80.16;101444.56;4944938;28;20062;-70
2021/10/01 06:40:24;;;;;;;6.38;2.08;;;;;;;11.92;80.21;101438.44;4949258;28;20061;-70
2021/10/01 06:42:54;;;;;;;4.95;1.90;;;;;;;11.96;80.47;101448.13;4948201;28;20503;-70
2021/10/01 06:45:24;;;;;;;5.22;2.10;;;;;;;12.06;80.53;101442.53;4944728;28;20700;-70
2021/10/01 06:48:07;;;;;;;5.38;2.20;;;;;;;12.08;80.04;101446.03;4940462;28;25119;-70
2021/10/01 07:35:23;;;;;;;6.80;2.45;;;;;;;12.56;79.67;101441.94;4926330;28;20205;-71
2021/10/01 08:19:43;;;;;;;6.38;2.53;;;;;;;13.39;79.71;101429.44;4938774;28;20106;-65
2021/10/01 08:22:12;;;;;;;8.13;2.75;;;;;;;13.42;79.29;101423.13;4937241;28;20055;-68
2021/10/01 08:25:05;;;;;;;19.00;3.07;;;;;;;13.41;79.04;101419.53;4940875;28;20058;-67
2021/10/01 08:27:34;;;;;;;7.03;2.35;;;;;;;13.48;79.14;101420.19;4941109;28;20039;-67
2021/10/01 08:30:04;;;;;;;8.48;2.53;;;;;;;13.41;78.92;101421.34;4944417;28;20296;-67
2021/10/01 08:32:33;;;;;;;7.43;2.28;;;;;;;13.42;79.05;101415.06;4941803;28;20474;-67
2021/10/01 08:35:01;;;;;;;11.85;2.53;;;;;;;13.43;79.14;101415.03;4941315;28;20057;-67
2021/10/01 08:37:28;;;;;;;6.40;2.70;;;;;;;13.55;79.14;101423.53;4941680;28;20074;-67
2021/10/01 08:39:57;;;;;;;5.97;2.50;;;;;;;13.51;78.69;101414.72;4940363;28;20130;-67
2021/10/01 08:42:25;;;;;;;6.07;2.65;;;;;;;13.58;78.65;101415.41;4947825;28;20047;-68
2021/10/01 08:44:54;;;;;;;5.00;2.20;;;;;;;13.66;77.83;101415.13;4939734;28;20337;-68
2021/10/01 08:47:25;;;;;;;6.60;2.53;;;;;;;13.71;77.86;101408.66;4942512;28;21719;-68
2021/10/01 08:50:02;;;;;;;8.13;2.53;;;;;;;13.81;77.75;101410.09;4941668;28;20054;-67
2021/10/01 08:52:30;;;;;;;6.68;2.58;;;;;;;13.97;77.24;101396.09;4935728;28;20053;-69
2021/10/01 08:55:23;;;;;;;7.72;2.60;;;;;;;13.95;77.18;101409.56;4946652;28;20139;-67
2021/10/01 08:57:51;;;;;;;6.75;2.70;;;;;;;14.17;76.11;101409.63;4947382;28;20129;-67
2021/10/01 09:00:21;;;;;;;8.80;2.60;;;;;;;14.24;75.56;101404.06;4946990;28;20059;-66
2021/10/01 09:03:14;;;;;;;9.57;2.55;;;;;;;14.01;75.69;101404.00;4943784;28;20415;-66
2021/10/01 09:06:07;;;;;;;8.38;2.60;;;;;;;14.32;75.16;101404.59;4944539;28;20066;-66
2021/10/01 09:09:04;;;;;;;5.22;2.22;;;;;;;14.58;74.71;101400.91;4942353;28;20178;-66
2021/10/01 09:11:34;;;;;;;6.43;2.40;;;;;;;14.23;74.62;101408.53;4944774;28;20051;-68
2021/10/01 09:14:05;;;;;;;8.55;2.38;;;;;;;14.45;74.35;101408.56;4943229;28;20141;-69
2021/10/01 09:16:39;;;;;;;9.15;2.67;;;;;;;14.44;74.36;101398.78;4951330;28;20059;-68
2021/10/01 09:19:08;;;;;;;5.43;2.75;;;;;;;14.74;74.33;101398.50;4942138;28;20105;-69
2021/10/01 09:21:43;;;;;;;4.03;2.40;;;;;;;14.73;73.88;101392.28;4946043;28;20129;-69
2021/10/01 09:24:13;;;;;;;6.00;2.20;;;;;;;14.65;74.32;101388.16;4945651;28;20284;-69
2021/10/01 09:26:48;;;;;;;12.85;3.17;;;;;;;14.88;74.38;101388.09;4943717;28;20375;-69
2021/10/01 09:29:25;;;;;;;8.23;3.13;;;;;;;15.11;73.62;101388.94;4944684;28;20059;-70
2021/10/01 09:31:54;;;;;;;11.38;2.75;;;;;;;15.07;73.39;101388.19;4943303;28;20051;-70
2021/10/01 09:34:35;;;;;;;6.47;2.70;;;;;;;14.86;73.83;101387.25;4944581;28;20059;-69
2021/10/01 09:37:06;;;;;;;13.13;2.50;;;;;;;14.91;75.02;101392.44;4945199;28;21297;-68
2021/10/01 09:39:35;;;;;;;8.20;2.63;;;;;;;14.68;75.42;101379.97;4942951;28;20061;-70
2021/10/01 09:42:18;;;;;;;8.32;2.55;;;;;;;14.73;75.28;101375.28;4941491;28;20055;-69
2021/10/01 09:44:48;;;;;;;8.77;2.40;;;;;;;14.42;76.26;101375.59;4948027;28;20133;-67
2021/10/01 09:47:18;;;;;;;5.90;2.92;;;;;;;14.47;76.72;101382.56;4946388;28;20262;-69
2021/10/01 09:50:12;;;;;;;7.00;2.35;;;;;;;14.38;76.83;101378.41;4941395;28;20726;-69
2021/10/01 09:53:07;;;;;;;5.57;2.42;;;;;;;14.47;76.77;101366.44;4945250;28;20086;-69
2021/10/01 09:55:58;;;;;;;7.65;2.72;;;;;;;14.38;76.89;101373.03;4946582;28;20105;-70
2021/10/01 09:58:29;;;;;;;8.32;3.80;;;;;;;14.10;81.00;101375.94;4945019;28;20046;-70
2021/10/01 10:00:58;;;;;;;11.05;3.10;;;;;;;13.87;84.97;101379.47;4937785;28;20137;-72
2021/10/01 10:03:31;;;;;;;7.82;2.70;;;;;;;13.64;86.61;101372.28;4948050;28;20062;-72
2021/10/01 10:06:01;;;;;;;7.83;3.23;;;;;;;13.26;89.17;101374.47;4944885;28;20051;-70
2021/10/01 10:08:33;;;;;;;6.85;3.25;;;;;;;13.15;90.12;101374.84;4947019;28;20350;-67
2021/10/01 10:11:24;;;;;;;6.07;2.83;;;;;;;13.39;90.13;101383.88;4945805;28;20059;-69
2021/10/01 10:13:55;;;;;;;7.63;2.50;;;;;;;13.41;90.66;101373.97;4947793;28;20051;-69
2021/10/01 10:16:24;;;;;;;6.47;2.55;;;;;;;13.32;90.58;101373.44;4941577;28;20518;-67
2021/10/01 10:18:58;;;;;;;5.75;2.75;;;;;;;13.44;89.96;101365.81;4946859;28;20074;-68
2021/10/01 10:21:26;;;;;;;8.98;3.13;;;;;;;13.27;90.04;101379.78;4945624;28;20055;-68
2021/10/01 10:23:57;;;;;;;6.63;2.80;;;;;;;13.32;90.58;101381.47;4944483;28;20153;-70
2021/10/01 10:26:25;;;;;;;6.97;2.75;;;;;;;13.34;91.16;101375.13;4947942;28;20475;-71
2021/10/01 10:28:55;;;;;;;7.90;3.75;;;;;;;13.21;90.27;101373.75;4947277;28;20114;-69
2021/10/01 10:31:28;;;;;;;5.28;2.55;;;;;;;13.28;90.82;101378.00;4946048;28;20062;-67
2021/10/01 10:33:57;;;;;;;7.78;3.22;;;;;;;13.23;91.09;101377.28;4945079;28;20051;-68
2021/10/01 10:36:31;;;;;;;7.35;2.85;;;;;;;13.34;91.29;101372.44;4943706;28;20089;-68
2021/10/01 10:39:38;;;;;;;9.88;3.00;;;;;;;13.39;90.31;101372.28;4948452;28;20593;-68
2021/10/01 10:42:14;;;;;;;7.88;2.67;;;;;;;13.57;91.25;101370.72;4946573;28;20059;-71
2021/10/01 10:44:48;;;;;;;6.68;3.13;;;;;;;13.48;89.75;101361.22;4946220;28;20184;-71
2021/10/01 10:47:52;;;;;;;9.98;3.17;;;;;;;13.43;89.86;101352.47;4946340;28;20133;-70
2021/10/01 10:50:43;;;;;;;9.10;3.20;;;;;;;13.44;89.05;101363.13;4949306;28;20138;-70
2021/10/01 10:53:33;;;;;;;6.97;3.08;;;;;;;13.66;89.34;101350.78;4941327;28;20614;-72
2021/10/01 10:56:16;;;;;;;6.07;3.40;;;;;;;13.53;89.09;101347.66;4948652;28;20059;-72
2021/10/01 10:58:55;;;;;;;8.70;3.50;;;;;;;13.52;89.11;101335.19;4944911;28;20055;-67
2021/10/01 11:01:34;;;;;;;7.68;3.30;;;;;;;13.77;90.21;101348.56;4947274;28;20059;-68
2021/10/01 11:04:39;;;;;;;10.55;5.28;;;;;;;13.69;89.72;101334.56;4945431;28;20166;-69
2021/10/01 11:07:08;;;;;;;7.15;3.30;;;;;;;13.61;90.77;101345.56;4946665;28;20149;-68
2021/10/01 11:09:39;;;;;;;10.95;3.60;;;;;;;13.56;91.27;101340.38;4946322;28;20071;-70
2021/10/01 11:12:33;;;;;;;11.32;3.50;;;;;;;13.62;92.37;101345.53;4939752;28;20227;-70
2021/10/01 11:15:18;;;;;;;7.88;3.50;;;;;;;13.47;94.02;101342.50;4934026;28;20500;-70
2021/10/01 11:18:12;;;;;;;7.47;3.47;;;;;;;13.53;95.05;101340.47;4945054;28;20087;-70
2021/10/01 11:20:40;;;;;;;7.90;3.42;;;;;;;13.41;95.41;101354.34;4950400;28;20069;-68
2021/10/01 11:23:19;;;;;;;8.00;3.70;;;;;;;13.44;96.06;101355.09;4944918;28;20055;-68
2021/10/01 11:25:47;;;;;;;7.05;3.25;;;;;;;13.33;96.12;101348.38;4946642;28;20518;-68
2021/10/01 11:28:18;;;;;;;9.10;3.30;;;;;;;13.48;96.48;101344.28;4944621;28;20050;-68
2021/10/01 11:30:54;;;;;;;8.02;3.65;;;;;;;13.51;97.47;101328.94;4943502;28;20097;-69
2021/10/01 11:33:21;;;;;;;12.63;3.45;;;;;;;13.59;97.11;101332.22;4947339;28;20081;-69
2021/10/01 11:36:13;;;;;;;7.70;3.40;;;;;;;13.72;97.68;101316.53;4944591;28;20073;-69
2021/10/01 11:38:41;;;;;;;8.38;3.83;;;;;;;13.76;96.15;101312.81;4947567;28;20082;-69
2021/10/01 11:41:16;;;;;;;9.60;4.13;;;;;;;13.62;95.10;101323.19;4942599;28;20138;-68
2021/10/01 11:43:57;;;;;;;8.55;3.50;;;;;;;13.79;97.10;101318.09;4945714;28;20465;-70
2021/10/01 11:46:26;;;;;;;9.98;3.55;;;;;;;13.88;95.31;101314.16;4942326;28;20258;-70
2021/10/01 11:48:54;;;;;;;9.23;3.33;;;;;;;13.88;95.36;101310.63;4945110;28;20074;-70
2021/10/01 11:51:22;;;;;;;8.65;3.53;;;;;;;13.95;95.57;101310.31;4945372;28;20647;-70
2021/10/01 11:54:05;;;;;;;8.52;3.20;;;;;;;13.97;93.34;101319.16;4938582;28;20173;-71
2021/10/01 11:56:33;;;;;;;8.38;3.38;;;;;;;14.13;93.23;101314.09;4947095;28;20093;-70
2021/10/01 11:59:02;;;;;;;8.60;3.38;;;;;;;14.18;91.55;101316.56;4946237;28;20074;-69
2021/10/01 12:01:30;;;;;;;10.95;3.30;;;;;;;14.32;91.37;101310.66;4942173;28;20055;-69
2021/10/01 12:04:00;;;;;;;7.70;3.13;;;;;;;14.29;90.53;101310.81;4945045;28;20047;-69
2021/10/01 12:06:31;;;;;;;6.35;3.10;;;;;;;14.39;91.38;101305.00;4942995;28;20098;-69
2021/10/01 12:09:01;;;;;;;9.15;3.10;;;;;;;14.70;90.44;101308.25;4946495;28;20054;-69
2021/10/01 12:11:31;;;;;;;7.20;2.63;;;;;;;14.73;89.29;101306.31;4939039;28;20495;-68
2021/10/01 12:14:12;;;;;;;11.98;3.67;;;;;;;14.96;89.06;101304.47;4941546;28;20050;-68
2021/10/01 12:16:41;;;;;;;5.38;2.50;;;;;;;15.16;87.54;101298.22;4941643;28;20097;-67
2021/10/01 12:19:09;;;;;;;8.63;2.45;;;;;;;15.27;85.13;101301.31;4942838;28;20277;-68
2021/10/01 12:21:37;;;;;;;9.05;2.72;;;;;;;15.55;86.19;101296.50;4942136;28;20134;-67
2021/10/01 12:24:11;;;;;;;10.27;2.85;;;;;;;15.43;85.20;101290.75;4945308;28;20537;-68
2021/10/01 12:26:41;;;;;;;5.80;2.42;;;;;;;15.45;85.16;101296.91;4939731;28;20055;-68
2021/10/01 12:29:16;;;;;;;9.40;3.00;;;;;;;15.42;84.57;101302.44;4944658;28;20054;-67
2021/10/01 12:31:47;;;;;;;11.27;2.65;;;;;;;15.48;84.81;101293.22;4938982;28;20055;-68
2021/10/01 12:34:19;;;;;;;6.18;2.45;;;;;;;15.48;84.62;101291.41;4945650;28;20059;-68
2021/10/01 12:36:49;;;;;;;6.15;2.40;;;;;;;15.46;84.23;101292.41;4939455;28;20090;-68
2021/10/01 12:39:18;;;;;;;6.32;2.22;;;;;;;15.60;85.07;101302.56;4943911;28;20134;-67
2021/10/01 12:41:54;;;;;;;3.95;2.22;;;;;;;15.30;84.42;101286.84;4943264;28;20121;-66
2021/10/01 12:44:23;;;;;;;6.38;2.50;;;;;;;15.32;84.92;101298.41;4943324;28;20150;-67
2021/10/01 12:46:54;;;;;;;7.05;2.33;;;;;;;15.33;84.83;101302.84;4940734;28;20055;-66
2021/10/01 12:49:29;;;;;;;5.93;2.53;;;;;;;15.20;83.91;101299.81;4947931;28;20058;-66
2021/10/01 12:52:12;;;;;;;7.57;3.10;;;;;;;15.05;86.13;101308.56;4944836;28;20046;-65
2021/10/01 12:54:48;;;;;;;9.93;3.00;;;;;;;14.73;91.27;101316.19;4943146;28;20137;-66
2021/10/01 12:57:19;;;;;;;7.40;3.00;;;;;;;14.51;89.78;101305.44;4943636;28;20106;-67
2021/10/01 12:59:52;;;;;;;11.70;2.88;;;;;;;14.41;91.10;101314.81;4949328;28;20057;-65
2021/10/01 13:02:23;;;;;;;6.53;2.70;;;;;;;14.14;93.60;101328.38;4946202;28;20050;-67
2021/10/01 13:04:57;;;;;;;9.70;2.75;;;;;;;14.08;95.68;101316.09;4944224;28;21467;-65
2021/10/01 13:07:30;;;;;;;8.20;3.42;;;;;;;13.87;97.70;101307.03;4949149;28;20097;-65
2021/10/01 13:10:00;;;;;;;14.55;3.40;;;;;;;13.85;99.05;101306.22;4941869;28;20047;-65
2021/10/01 13:12:30;;;;;;;11.57;3.45;;;;;;;13.83;100.00;101308.09;4941343;28;20051;-65
2021/10/01 13:15:14;;;;;;;7.22;3.63;;;;;;;13.77;100.00;101301.19;4943045;28;20051;-65
2021/10/01 13:17:43;;;;;;;9.27;3.60;;;;;;;13.71;100.00;101297.84;4945732;28;20165;-65